Terminal Aerodrome Forecast
Issued by NWS Billings, MT

Home | Current Version | Previous Version | Text Only | Print | Product List | Glossary Off
Versions: 1 2 3 4 5 6 7 8 9 10 11 12 13 14 15 16 17 18 19 20 21 22 23

401
FTUS45 KBYZ 221128
TAFMLS
TAF
KMLS 221128Z 2212/2312 05009KT P6SM FEW200
     FM221600 12015KT P6SM SCT150
     FM222200 11009KT P6SM VCTS SCT090CB BKN150
     FM230700 30024G37KT P6SM FEW150=

USA.gov is the U.S. government's official web portal to all federal, state and local government web resources and services.